createdAt,value
2022-12-18T00:01:26.764Z,75.11
2022-12-18T00:03:55.240Z,75.15
2022-12-18T00:06:23.626Z,75.19
2022-12-18T00:08:50.763Z,75.15
2022-12-18T00:11:22.565Z,75.08
2022-12-18T00:13:50.002Z,75.66
2022-12-18T00:16:21.685Z,75.63
2022-12-18T00:18:50.339Z,75.68
2022-12-18T00:21:17.979Z,75.83
2022-12-18T00:23:47.911Z,75.46
2022-12-18T00:26:19.693Z,75.63
2022-12-18T00:28:47.456Z,75.63
2022-12-18T00:31:17.877Z,75.66
2022-12-18T00:33:45.246Z,75.32
2022-12-18T00:36:18.559Z,76.05
2022-12-18T00:38:46.896Z,75.44
2022-12-18T00:41:35.485Z,75.90
2022-12-18T00:44:05.343Z,75.89
2022-12-18T00:46:33.246Z,75.63
2022-12-18T00:49:00.867Z,75.69
2022-12-18T00:51:27.916Z,75.93
2022-12-18T00:53:55.067Z,75.84
2022-12-18T00:56:25.480Z,75.77
2022-12-18T00:58:53.490Z,75.55
2022-12-18T01:01:20.963Z,75.69
2022-12-18T01:03:48.447Z,76.19
2022-12-18T01:06:17.560Z,75.70
2022-12-18T01:08:45.315Z,75.88
2022-12-18T01:11:19.023Z,76.14
2022-12-18T01:13:46.250Z,75.93
2022-12-18T01:16:15.224Z,75.17
2022-12-18T01:18:42.671Z,75.27
2022-12-18T01:21:14.713Z,75.86
2022-12-18T01:23:42.512Z,75.45
2022-12-18T01:26:15.079Z,75.50
2022-12-18T01:28:42.730Z,74.99
2022-12-18T01:31:30.493Z,75.11
2022-12-18T01:33:58.100Z,75.43
2022-12-18T01:36:27.693Z,75.56
2022-12-18T01:38:55.177Z,75.39
2022-12-18T01:41:25.676Z,75.21
2022-12-18T01:43:58.446Z,75.30
2022-12-18T01:46:28.915Z,75.34
2022-12-18T01:49:02.464Z,75.27
2022-12-18T01:51:31.891Z,74.85
2022-12-18T01:54:00.520Z,74.78
2022-12-18T01:56:27.969Z,75.12
2022-12-18T01:59:05.914Z,75.37
2022-12-18T02:01:34.152Z,75.14
2022-12-18T02:04:31.542Z,74.98
2022-12-18T02:07:10.471Z,74.71
2022-12-18T02:09:44.703Z,74.76
2022-12-18T02:12:29.503Z,75.19
2022-12-18T02:15:17.829Z,74.68
2022-12-18T02:17:54.449Z,74.51
2022-12-18T02:20:26.004Z,74.38
2022-12-18T02:23:08.809Z,74.41
2022-12-18T02:25:58.319Z,74.65
2022-12-18T02:28:29.593Z,74.57
2022-12-18T02:31:03.215Z,74.62
2022-12-18T02:33:32.055Z,74.90
2022-12-18T02:36:01.314Z,74.82
2022-12-18T02:38:30.942Z,74.23
2022-12-18T02:41:04.456Z,74.77
2022-12-18T02:43:32.217Z,74.73
2022-12-18T02:46:01.810Z,74.54
2022-12-18T02:48:35.265Z,74.08
2022-12-18T02:51:10.288Z,74.48
2022-12-18T02:53:43.266Z,74.38
2022-12-18T02:56:17.879Z,74.85
2022-12-18T02:59:04.281Z,74.43
2022-12-18T03:02:03.889Z,74.49
2022-12-18T03:04:43.452Z,74.55
2022-12-18T03:07:16.763Z,74.63
2022-12-18T03:09:48.898Z,74.50
2022-12-18T03:12:30.491Z,74.70
2022-12-18T03:15:17.216Z,74.79
2022-12-18T03:17:50.981Z,74.14
2022-12-18T03:20:21.535Z,74.23
2022-12-18T03:22:54.133Z,74.30
2022-12-18T03:25:22.035Z,74.01
2022-12-18T03:27:58.926Z,74.32
2022-12-18T03:30:30.170Z,74.39
2022-12-18T03:33:09.015Z,74.09
2022-12-18T03:35:43.998Z,74.02
2022-12-18T03:38:13.342Z,73.78
2022-12-18T03:40:49.801Z,73.70
2022-12-18T03:43:25.943Z,73.34
2022-12-18T03:46:01.630Z,73.51
2022-12-18T03:48:51.437Z,73.52
2022-12-18T03:51:29.573Z,73.64
2022-12-18T03:54:03.671Z,73.56
2022-12-18T03:56:39.942Z,73.49
2022-12-18T03:59:11.119Z,73.64
2022-12-18T04:01:44.490Z,73.82
2022-12-18T04:04:17.510Z,73.46
2022-12-18T04:06:48.211Z,73.56
2022-12-18T04:09:15.869Z,73.49
2022-12-18T04:11:47.925Z,73.42
2022-12-18T04:14:18.228Z,73.50
2022-12-18T04:16:48.950Z,73.28
2022-12-18T04:19:18.250Z,73.39
2022-12-18T04:21:48.847Z,73.69
2022-12-18T04:24:15.961Z,73.50
2022-12-18T04:26:52.262Z,73.11
2022-12-18T04:29:25.129Z,73.74
2022-12-18T04:31:52.362Z,73.91
2022-12-18T04:34:20.310Z,73.57
2022-12-18T04:36:53.135Z,73.35
2022-12-18T04:39:21.905Z,73.42
2022-12-18T04:41:52.199Z,73.51
2022-12-18T04:44:19.136Z,73.52
2022-12-18T04:46:46.208Z,73.62
2022-12-18T04:49:13.617Z,73.62
2022-12-18T04:51:40.838Z,73.59
2022-12-18T04:54:07.766Z,73.36
2022-12-18T04:56:34.731Z,73.38
2022-12-18T04:59:01.654Z,73.51
2022-12-18T05:01:34.372Z,73.40
2022-12-18T05:04:02.944Z,73.53
2022-12-18T05:06:29.971Z,73.84
2022-12-18T05:08:56.933Z,73.95
2022-12-18T05:11:23.912Z,74.27
2022-12-18T05:13:50.918Z,73.80
2022-12-18T05:16:18.015Z,73.97
2022-12-18T05:18:45.046Z,73.91
2022-12-18T05:21:12.031Z,74.19
2022-12-18T05:23:39.434Z,74.11
2022-12-18T05:26:08.955Z,73.98
2022-12-18T05:28:37.235Z,73.97
2022-12-18T05:31:05.469Z,74.09
2022-12-18T05:33:34.415Z,73.96
2022-12-18T05:36:03.264Z,73.72
2022-12-18T05:38:31.782Z,74.18
2022-12-18T05:40:59.320Z,74.12
2022-12-18T05:43:27.725Z,73.87
2022-12-18T05:45:55.177Z,73.67
2022-12-18T05:48:22.763Z,73.95
2022-12-18T05:50:51.898Z,74.20
2022-12-18T05:53:21.342Z,73.79
2022-12-18T05:55:48.594Z,73.85
2022-12-18T05:58:16.444Z,73.71
2022-12-18T06:00:47.110Z,74.09
2022-12-18T06:03:15.074Z,74.06
2022-12-18T06:05:46.425Z,74.28
2022-12-18T06:08:14.603Z,74.10
2022-12-18T06:10:42.296Z,74.05
2022-12-18T06:13:09.297Z,73.62
2022-12-18T06:15:39.326Z,74.04
2022-12-18T06:18:06.268Z,73.99
2022-12-18T06:20:34.005Z,73.86
2022-12-18T06:23:01.461Z,73.80
2022-12-18T06:25:28.847Z,73.99
2022-12-18T06:27:56.068Z,73.66
2022-12-18T06:30:23.265Z,73.54
2022-12-18T06:32:56.383Z,73.87
2022-12-18T06:35:24.422Z,73.86
2022-12-18T06:37:51.936Z,73.93
2022-12-18T06:40:19.455Z,73.99
2022-12-18T06:42:46.469Z,73.98
2022-12-18T06:45:16.677Z,73.94
2022-12-18T06:47:43.822Z,73.97
2022-12-18T06:50:11.150Z,73.72
2022-12-18T06:52:38.168Z,73.39
2022-12-18T06:55:05.754Z,73.47
2022-12-18T06:57:35.617Z,73.41
2022-12-18T07:00:03.949Z,73.44
2022-12-18T07:02:32.034Z,73.61
2022-12-18T07:04:59.231Z,73.59
2022-12-18T07:07:26.193Z,73.04
2022-12-18T07:09:53.205Z,73.33
2022-12-18T07:12:20.154Z,73.30
2022-12-18T07:14:47.257Z,73.10
2022-12-18T07:17:14.237Z,73.13
2022-12-18T07:19:41.265Z,72.58
2022-12-18T07:22:08.191Z,72.46
2022-12-18T07:24:35.626Z,72.41
2022-12-18T07:27:03.350Z,72.58
2022-12-18T07:29:31.092Z,72.29
2022-12-18T07:31:58.185Z,72.32
2022-12-18T07:34:25.363Z,72.48
2022-12-18T07:36:52.411Z,72.26
2022-12-18T07:39:19.367Z,72.16
2022-12-18T07:42:09.092Z,71.50
2022-12-18T07:44:36.229Z,72.06
2022-12-18T07:47:06.655Z,71.95
2022-12-18T07:49:37.586Z,71.66
2022-12-18T07:52:04.674Z,71.58
2022-12-18T07:54:31.612Z,71.28
2022-12-18T07:56:58.634Z,71.69
2022-12-18T07:59:25.565Z,71.51
2022-12-18T08:01:52.682Z,71.43
2022-12-18T08:04:19.845Z,71.18
2022-12-18T08:06:48.352Z,71.10
2022-12-18T08:09:15.801Z,70.89
2022-12-18T08:11:43.255Z,70.97
2022-12-18T08:14:10.940Z,71.06
2022-12-18T08:16:38.480Z,70.63
2022-12-18T08:19:05.464Z,70.59
2022-12-18T08:21:33.038Z,70.79
2022-12-18T08:24:01.783Z,70.67
2022-12-18T08:26:31.530Z,71.07
2022-12-18T08:29:00.626Z,71.17
2022-12-18T08:31:30.662Z,70.96
2022-12-18T08:33:58.351Z,70.81
2022-12-18T08:36:26.206Z,71.44
2022-12-18T08:38:54.600Z,71.21
2022-12-18T08:41:22.427Z,71.35
2022-12-18T08:44:08.643Z,71.40
2022-12-18T08:46:41.258Z,71.29
2022-12-18T08:49:09.666Z,71.40
2022-12-18T08:51:37.119Z,71.16
2022-12-18T08:54:05.299Z,71.38
2022-12-18T08:56:34.355Z,71.20
2022-12-18T08:59:01.593Z,71.55
2022-12-18T09:01:29.470Z,72.17
2022-12-18T09:03:56.979Z,72.01
2022-12-18T09:06:24.762Z,72.31
2022-12-18T09:08:51.732Z,72.16
2022-12-18T09:11:27.523Z,72.58
2022-12-18T09:13:55.827Z,72.57
2022-12-18T09:16:28.814Z,72.88
2022-12-18T09:19:02.823Z,72.50
2022-12-18T09:21:37.250Z,72.59
2022-12-18T09:24:08.600Z,71.70
2022-12-18T09:26:36.956Z,72.14
2022-12-18T09:29:04.692Z,72.09
2022-12-18T09:31:31.719Z,72.34
2022-12-18T09:33:58.736Z,72.61
2022-12-18T09:36:25.783Z,72.26
2022-12-18T09:38:52.802Z,72.72
2022-12-18T09:41:19.738Z,72.50
2022-12-18T09:43:53.987Z,72.35
2022-12-18T09:46:34.067Z,71.88
2022-12-18T09:49:04.929Z,72.14
2022-12-18T09:51:38.735Z,72.20
2022-12-18T09:54:12.396Z,72.60
2022-12-18T09:56:43.986Z,72.50
2022-12-18T09:59:40.908Z,72.30
2022-12-18T10:02:34.254Z,72.17
2022-12-18T10:05:04.774Z,71.53
2022-12-18T10:07:34.751Z,71.82
2022-12-18T10:10:38.684Z,71.66
2022-12-18T10:13:14.491Z,71.95
2022-12-18T10:15:49.766Z,72.57
2022-12-18T10:19:08.872Z,72.34
2022-12-18T10:21:44.087Z,72.25
2022-12-18T10:24:19.511Z,71.67
2022-12-18T10:26:48.207Z,71.70
2022-12-18T10:29:17.365Z,71.66
2022-12-18T10:31:44.559Z,72.09
2022-12-18T10:34:15.894Z,72.09
2022-12-18T10:36:43.873Z,71.45
2022-12-18T10:39:29.024Z,71.90
2022-12-18T10:42:31.363Z,71.25
2022-12-18T10:45:12.667Z,71.53
2022-12-18T10:47:51.862Z,71.53
2022-12-18T10:51:01.818Z,71.72
2022-12-18T10:53:28.874Z,71.74
2022-12-18T10:56:02.381Z,71.05
2022-12-18T10:58:33.368Z,71.39
2022-12-18T11:01:08.156Z,71.52
2022-12-18T11:03:38.557Z,71.39
2022-12-18T11:06:21.253Z,71.80
2022-12-18T11:09:01.128Z,71.56
2022-12-18T11:11:29.423Z,71.93
2022-12-18T11:14:04.518Z,71.56
2022-12-18T11:16:37.030Z,71.61
2022-12-18T11:19:37.731Z,71.79
2022-12-18T11:22:27.517Z,71.96
2022-12-18T11:28:07.031Z,72.39
2022-12-18T11:30:37.865Z,71.67
2022-12-18T11:33:14.363Z,72.19
2022-12-18T11:35:56.216Z,71.77
2022-12-18T11:38:27.972Z,72.29
2022-12-18T11:41:50.003Z,72.10
2022-12-18T11:44:26.418Z,71.62
2022-12-18T11:47:00.509Z,71.58
2022-12-18T11:49:37.757Z,72.32
2022-12-18T11:52:27.931Z,71.77
2022-12-18T11:55:02.450Z,71.95
2022-12-18T11:57:42.363Z,72.03
2022-12-18T12:00:22.548Z,72.13
2022-12-18T12:03:19.662Z,72.22
2022-12-18T12:05:52.002Z,71.94
2022-12-18T12:08:27.790Z,71.97
2022-12-18T12:11:21.072Z,71.94
2022-12-18T12:14:05.244Z,71.98
2022-12-18T12:16:54.783Z,72.12
2022-12-18T12:19:30.780Z,72.08
2022-12-18T12:22:14.916Z,72.08
2022-12-18T12:25:15.636Z,72.03
2022-12-18T12:28:16.565Z,71.72
2022-12-18T12:31:32.543Z,71.46
2022-12-18T12:34:18.752Z,71.80
2022-12-18T12:36:53.807Z,71.80
2022-12-18T12:39:29.286Z,71.60
2022-12-18T12:42:15.227Z,72.01
2022-12-18T12:44:56.442Z,72.03
2022-12-18T12:47:27.619Z,72.07
2022-12-18T12:49:55.473Z,71.44
2022-12-18T12:52:35.341Z,71.38
2022-12-18T12:55:10.265Z,71.29
2022-12-18T12:57:47.198Z,71.72
2022-12-18T13:00:17.254Z,71.78
2022-12-18T13:02:55.259Z,71.88
2022-12-18T13:05:51.482Z,71.84
2022-12-18T13:08:31.169Z,71.81
2022-12-18T13:14:20.832Z,71.74
2022-12-18T13:16:47.758Z,71.70
2022-12-18T13:19:27.785Z,71.88
2022-12-18T13:21:58.438Z,71.89
2022-12-18T13:24:32.449Z,72.01
2022-12-18T13:26:59.476Z,71.93
2022-12-18T13:29:55.918Z,72.23
2022-12-18T13:32:26.304Z,71.84
2022-12-18T13:35:18.973Z,72.12
2022-12-18T13:37:54.062Z,71.85
2022-12-18T13:40:39.842Z,71.49
2022-12-18T13:43:43.886Z,71.19
2022-12-18T13:46:37.659Z,71.20
2022-12-18T13:49:11.197Z,71.29
2022-12-18T13:51:42.928Z,71.36
2022-12-18T13:54:21.620Z,71.67
2022-12-18T13:56:49.829Z,71.71
2022-12-18T13:59:25.012Z,71.87
2022-12-18T14:02:00.865Z,71.92
2022-12-18T14:04:33.747Z,71.71
2022-12-18T14:07:16.626Z,71.50
2022-12-18T14:09:47.388Z,71.59
2022-12-18T14:12:37.337Z,71.29
2022-12-18T14:15:07.914Z,71.76
2022-12-18T14:17:35.160Z,71.76
2022-12-18T14:20:03.504Z,71.61
2022-12-18T14:22:31.977Z,71.81
2022-12-18T14:25:13.944Z,71.91
2022-12-18T14:28:04.080Z,71.88
2022-12-18T14:30:38.429Z,71.78
2022-12-18T14:33:10.432Z,71.40
2022-12-18T14:35:40.514Z,70.97
2022-12-18T14:38:27.069Z,70.87
2022-12-18T14:40:55.551Z,71.05
2022-12-18T14:43:25.959Z,70.87
2022-12-18T14:45:53.397Z,71.35
2022-12-18T14:48:40.803Z,71.10
2022-12-18T14:51:19.801Z,70.89
2022-12-18T14:53:54.524Z,71.22
2022-12-18T14:56:23.512Z,70.98
2022-12-18T14:58:55.597Z,71.00
2022-12-18T15:01:38.574Z,70.62
2022-12-18T15:04:24.371Z,71.05
2022-12-18T15:07:07.254Z,70.51
2022-12-18T15:09:34.406Z,70.49
2022-12-18T15:12:02.635Z,71.04
2022-12-18T15:14:41.447Z,70.91
2022-12-18T15:17:34.621Z,70.53
2022-12-18T15:20:04.989Z,70.76
2022-12-18T15:22:35.775Z,71.01
2022-12-18T15:25:20.945Z,70.78
2022-12-18T15:27:48.661Z,70.53
2022-12-18T15:30:15.674Z,70.38
2022-12-18T15:32:42.762Z,70.67
2022-12-18T15:35:15.653Z,70.52
2022-12-18T15:37:43.511Z,70.26
2022-12-18T15:40:21.782Z,70.24
2022-12-18T15:43:08.089Z,69.97
2022-12-18T15:45:35.032Z,70.25
2022-12-18T15:48:11.909Z,70.33
2022-12-18T15:50:38.890Z,70.16
2022-12-18T15:53:05.904Z,70.49
2022-12-18T15:55:56.560Z,70.32
2022-12-18T15:58:27.802Z,70.39
2022-12-18T16:00:56.783Z,70.28
2022-12-18T16:03:23.785Z,70.35
2022-12-18T16:05:51.519Z,70.10
2022-12-18T16:08:18.502Z,70.39
2022-12-18T16:10:45.522Z,69.71
2022-12-18T16:13:21.719Z,70.12
2022-12-18T16:15:48.911Z,70.08
2022-12-18T16:18:15.883Z,69.93
2022-12-18T16:20:43.048Z,70.21
2022-12-18T16:23:10.054Z,70.07
2022-12-18T16:25:37.134Z,70.16
2022-12-18T16:28:04.144Z,69.92
2022-12-18T16:30:38.238Z,70.01
2022-12-18T16:33:07.705Z,70.25
2022-12-18T16:35:35.383Z,69.84
2022-12-18T16:38:02.450Z,69.99
2022-12-18T16:40:32.619Z,70.08
2022-12-18T16:42:59.591Z,70.01
2022-12-18T16:45:34.235Z,70.09
2022-12-18T16:48:01.320Z,69.71
2022-12-18T16:50:28.306Z,69.80
2022-12-18T16:52:55.288Z,69.40
2022-12-18T16:55:22.298Z,69.77
2022-12-18T16:57:49.341Z,69.64
2022-12-18T17:00:16.872Z,69.64
2022-12-18T17:02:44.017Z,69.53
2022-12-18T17:05:11.189Z,69.66
2022-12-18T17:07:38.998Z,69.33
2022-12-18T17:10:06.438Z,69.21
2022-12-18T17:12:33.419Z,69.17
2022-12-18T17:15:00.557Z,68.83
2022-12-18T17:17:27.605Z,69.12
2022-12-18T17:19:54.657Z,69.06
2022-12-18T17:22:23.526Z,69.27
2022-12-18T17:24:50.825Z,69.34
2022-12-18T17:27:17.842Z,69.39
2022-12-18T17:29:48.054Z,69.48
2022-12-18T17:32:16.577Z,69.07
2022-12-18T17:34:43.540Z,69.14
2022-12-18T17:37:10.495Z,68.95
2022-12-18T17:39:37.807Z,69.04
2022-12-18T17:42:05.298Z,68.81
2022-12-18T17:44:34.440Z,69.13
2022-12-18T17:47:01.961Z,69.23
2022-12-18T17:49:29.252Z,69.15
2022-12-18T17:51:56.226Z,69.12
2022-12-18T17:54:23.253Z,69.01
2022-12-18T17:56:50.315Z,68.92
2022-12-18T17:59:17.450Z,69.08
2022-12-18T18:01:46.096Z,68.89
2022-12-18T18:04:15.488Z,69.28
2022-12-18T18:06:42.625Z,68.92
2022-12-18T18:09:16.146Z,69.21
2022-12-18T18:12:04.120Z,68.83
2022-12-18T18:14:31.921Z,68.72
2022-12-18T18:17:04.225Z,69.26
2022-12-18T18:19:32.959Z,68.54
2022-12-18T18:22:00.150Z,69.00
2022-12-18T18:24:27.390Z,68.99
2022-12-18T18:26:59.632Z,69.02
2022-12-18T18:29:30.432Z,68.95
2022-12-18T18:31:58.208Z,68.83
2022-12-18T18:34:28.227Z,68.64
2022-12-18T18:36:55.467Z,68.79
2022-12-18T18:39:25.568Z,69.03
2022-12-18T18:41:52.610Z,68.97
2022-12-18T18:44:21.544Z,68.61
2022-12-18T18:46:54.160Z,68.64
2022-12-18T18:49:21.515Z,68.34
2022-12-18T18:51:50.794Z,68.36
2022-12-18T18:54:17.753Z,68.36
2022-12-18T18:57:18.820Z,68.54
2022-12-18T18:59:32.272Z,68.66
2022-12-18T19:02:04.450Z,68.27
2022-12-18T19:04:33.731Z,68.34
2022-12-18T19:07:01.439Z,68.38
2022-12-18T19:09:28.820Z,68.52
2022-12-18T19:12:14.353Z,68.49
2022-12-18T19:14:44.918Z,68.35
2022-12-18T19:17:12.002Z,68.67
2022-12-18T19:19:39.139Z,68.23
2022-12-18T19:22:06.291Z,68.33
2022-12-18T19:24:33.285Z,68.21
2022-12-18T19:27:00.314Z,68.50
2022-12-18T19:29:27.359Z,68.51
2022-12-18T19:31:54.452Z,68.61
2022-12-18T19:34:21.488Z,68.75
2022-12-18T19:36:48.483Z,68.66
2022-12-18T19:39:17.787Z,68.84
2022-12-18T19:41:46.839Z,68.57
2022-12-18T19:44:16.262Z,68.51
2022-12-18T19:46:44.358Z,68.64
2022-12-18T19:49:17.277Z,68.39
2022-12-18T19:51:47.532Z,69.00
2022-12-18T19:54:17.921Z,68.93
2022-12-18T19:56:46.047Z,68.71
2022-12-18T19:59:13.551Z,68.59
2022-12-18T20:01:41.321Z,68.79
2022-12-18T20:04:09.072Z,69.02
2022-12-18T20:06:47.126Z,68.81
2022-12-18T20:09:14.287Z,68.48
2022-12-18T20:11:42.237Z,68.07
2022-12-18T20:14:13.915Z,68.04
2022-12-18T20:16:41.617Z,68.26
2022-12-18T20:19:10.947Z,68.32
2022-12-18T20:21:38.287Z,68.25
2022-12-18T20:24:07.078Z,68.17
2022-12-18T20:26:34.658Z,68.45
2022-12-18T20:29:01.659Z,68.03
2022-12-18T20:31:28.726Z,67.94
2022-12-18T20:34:01.471Z,68.59
2022-12-18T20:36:30.787Z,68.44
2022-12-18T20:39:01.645Z,68.08
2022-12-18T20:41:37.354Z,68.37
2022-12-18T20:44:08.632Z,68.67
2022-12-18T20:46:50.576Z,68.46
2022-12-18T20:49:17.573Z,68.47
2022-12-18T20:51:44.706Z,68.10
2022-12-18T20:54:12.091Z,68.20
2022-12-18T20:56:39.132Z,68.60
2022-12-18T20:59:06.402Z,68.38
2022-12-18T21:01:33.563Z,68.59
2022-12-18T21:04:02.403Z,68.26
2022-12-18T21:06:29.578Z,68.55
2022-12-18T21:08:56.858Z,68.39
2022-12-18T21:11:48.396Z,68.42
2022-12-18T21:14:18.144Z,68.30
2022-12-18T21:16:45.809Z,68.52
2022-12-18T21:19:15.294Z,68.37
2022-12-18T21:21:42.904Z,68.43
2022-12-18T21:24:10.655Z,68.53
2022-12-18T21:26:44.831Z,68.25
2022-12-18T21:29:17.872Z,68.24
2022-12-18T21:31:47.107Z,68.40
2022-12-18T21:34:21.383Z,68.54
2022-12-18T21:36:48.815Z,68.39
2022-12-18T21:39:16.926Z,68.37
2022-12-18T21:42:02.728Z,68.08
2022-12-18T21:44:30.611Z,68.12
2022-12-18T21:47:20.868Z,68.21
2022-12-18T21:49:54.019Z,68.41
2022-12-18T21:52:27.291Z,68.60
2022-12-18T21:55:08.947Z,68.14
2022-12-18T21:57:38.715Z,68.50
2022-12-18T22:00:07.669Z,68.35
2022-12-18T22:02:40.895Z,68.02
2022-12-18T22:05:08.561Z,67.96
2022-12-18T22:07:35.835Z,68.16
2022-12-18T22:10:02.836Z,68.29
2022-12-18T22:12:43.112Z,68.28
2022-12-18T22:15:21.061Z,68.24
2022-12-18T22:17:50.766Z,67.98
2022-12-18T22:20:19.955Z,68.17
2022-12-18T22:22:48.395Z,67.89
2022-12-18T22:25:15.454Z,68.05
2022-12-18T22:27:42.405Z,67.92
2022-12-18T22:30:11.387Z,67.88
2022-12-18T22:32:38.367Z,67.90
2022-12-18T22:35:10.653Z,67.92
2022-12-18T22:37:42.477Z,68.20
2022-12-18T22:40:23.711Z,68.16
2022-12-18T22:42:54.899Z,68.28
2022-12-18T22:45:26.179Z,68.31
2022-12-18T22:47:53.551Z,68.49
2022-12-18T22:50:20.630Z,68.48
2022-12-18T22:52:47.579Z,68.55
2022-12-18T22:55:14.604Z,68.45
2022-12-18T22:57:48.800Z,68.60
2022-12-18T23:00:24.296Z,68.39
2022-12-18T23:03:00.560Z,68.35
2022-12-18T23:05:33.728Z,68.38
2022-12-18T23:08:02.216Z,68.27
2022-12-18T23:10:29.795Z,68.54
2022-12-18T23:12:56.923Z,68.57
2022-12-18T23:15:28.066Z,68.56
2022-12-18T23:17:56.421Z,68.53
2022-12-18T23:20:23.385Z,68.65
2022-12-18T23:22:50.365Z,68.59
2022-12-18T23:25:17.437Z,68.74
2022-12-18T23:27:44.803Z,68.95
2022-12-18T23:30:12.347Z,68.85
2022-12-18T23:32:39.387Z,68.88
2022-12-18T23:35:06.952Z,68.50
2022-12-18T23:37:58.436Z,68.71
2022-12-18T23:40:22.923Z,68.77
2022-12-18T23:42:49.922Z,69.05
2022-12-18T23:45:18.128Z,69.11
2022-12-18T23:47:48.256Z,68.58
2022-12-18T23:50:18.224Z,68.73
2022-12-18T23:52:45.202Z,68.44
2022-12-18T23:55:12.265Z,68.63
2022-12-18T23:57:39.677Z,68.59
